SWA55KB KBWI-KRDU
Flight info
| Callsign | SWA55KB |
|---|---|
| Flight time | 0h 45m |
| Altitude | 28000 |
| Route | CONLE5 COLIN DCT TAPPA DCT HOUKY TAQLE3 |
| Aircraft | B38M/M-SDE1FGHILORVWXY/HB1 |
Departure
| Time | 2026-05-06 23:20 |
|---|---|
| Airport | Baltimore/Washington International Thurgood Marshall Airport (KBWI) |
Arrival
| Time | 2026-05-07 00:05 |
|---|---|
| Airport | Raleigh-Durham International Airport (KRDU) |
| Time | Latitude | Longitude | Altitude | Speed | Heading |
|---|---|---|---|---|---|
| 2026-05-06 22:42 | 39.18102 | -76.67289 | 160 ft | 0 kts | 236° |
| 2026-05-06 23:07 | 39.18111 | -76.67269 | 158 ft | 4 kts | 252° |
| 2026-05-06 23:07 | 39.18111 | -76.67238 | 158 ft | 4 kts | 299° |
| 2026-05-06 23:07 | 39.18097 | -76.67220 | 158 ft | 1 kts | 324° |
| 2026-05-06 23:08 | 39.18094 | -76.67217 | 158 ft | 0 kts | 324° |
| 2026-05-06 23:08 | 39.18095 | -76.67217 | 158 ft | 0 kts | 324° |
| 2026-05-06 23:10 | 39.18095 | -76.67218 | 158 ft | 0 kts | 324° |
| 2026-05-06 23:10 | 39.18106 | -76.67228 | 158 ft | 4 kts | 324° |
| 2026-05-06 23:10 | 39.18148 | -76.67267 | 158 ft | 10 kts | 324° |
| 2026-05-06 23:10 | 39.18151 | -76.67269 | 158 ft | 0 kts | 324° |
| 2026-05-06 23:11 | 39.18156 | -76.67275 | 158 ft | 3 kts | 324° |
| 2026-05-06 23:11 | 39.18193 | -76.67309 | 158 ft | 11 kts | 324° |
| 2026-05-06 23:12 | 39.18268 | -76.67380 | 156 ft | 0 kts | 311° |
| 2026-05-06 23:12 | 39.18266 | -76.67391 | 156 ft | 1 kts | 233° |
| 2026-05-06 23:12 | 39.18252 | -76.67397 | 156 ft | 4 kts | 193° |
| 2026-05-06 23:12 | 39.18209 | -76.67422 | 157 ft | 10 kts | 222° |
| 2026-05-06 23:13 | 39.18148 | -76.67514 | 156 ft | 12 kts | 223° |
| 2026-05-06 23:13 | 39.18073 | -76.67490 | 156 ft | 15 kts | 143° |
| 2026-05-06 23:13 | 39.17966 | -76.67391 | 155 ft | 23 kts | 144° |
| 2026-05-06 23:13 | 39.17819 | -76.67251 | 157 ft | 29 kts | 144° |
| 2026-05-06 23:14 | 39.17637 | -76.67084 | 158 ft | 35 kts | 144° |
| 2026-05-06 23:14 | 39.17534 | -76.66892 | 158 ft | 5 kts | 97° |
| 2026-05-06 23:14 | 39.17530 | -76.66841 | 158 ft | 6 kts | 95° |
| 2026-05-06 23:14 | 39.17526 | -76.66777 | 157 ft | 8 kts | 94° |
| 2026-05-06 23:15 | 39.17522 | -76.66698 | 157 ft | 10 kts | 94° |
| 2026-05-06 23:15 | 39.17519 | -76.66605 | 156 ft | 11 kts | 85° |
| 2026-05-06 23:15 | 39.17560 | -76.66526 | 156 ft | 11 kts | 50° |
| 2026-05-06 23:15 | 39.17553 | -76.66432 | 155 ft | 12 kts | 122° |
| 2026-05-06 23:16 | 39.17522 | -76.66369 | 153 ft | 14 kts | 122° |
| 2026-05-06 23:16 | 39.17465 | -76.66249 | 151 ft | 16 kts | 112° |
| 2026-05-06 23:16 | 39.17450 | -76.66103 | 151 ft | 17 kts | 94° |
| 2026-05-06 23:16 | 39.17441 | -76.65942 | 148 ft | 19 kts | 94° |
| 2026-05-06 23:17 | 39.17430 | -76.65757 | 143 ft | 22 kts | 94° |
| 2026-05-06 23:17 | 39.17409 | -76.65559 | 144 ft | 22 kts | 122° |
| 2026-05-06 23:17 | 39.17283 | -76.65572 | 143 ft | 16 kts | 253° |
| 2026-05-06 23:17 | 39.17286 | -76.65642 | 143 ft | 0 kts | 274° |
| 2026-05-06 23:19 | 39.17289 | -76.65718 | 144 ft | 36 kts | 274° |
| 2026-05-06 23:19 | 39.17320 | -76.66369 | 153 ft | 107 kts | 274° |
| 2026-05-06 23:19 | 39.17393 | -76.67613 | 152 ft | 169 kts | 274° |
| 2026-05-06 23:19 | 39.17502 | -76.69307 | 429 ft | 201 kts | 272° |
| 2026-05-06 23:20 | 39.17615 | -76.71097 | 1430 ft | 197 kts | 268° |
| 2026-05-06 23:20 | 39.17723 | -76.72840 | 2580 ft | 191 kts | 262° |
| 2026-05-06 23:20 | 39.17468 | -76.74435 | 3642 ft | 181 kts | 240° |
| 2026-05-06 23:20 | 39.16588 | -76.75662 | 4090 ft | 198 kts | 207° |
| 2026-05-06 23:21 | 39.15201 | -76.75973 | 4667 ft | 219 kts | 177° |
| 2026-05-06 23:21 | 39.13737 | -76.75130 | 5252 ft | 248 kts | 146° |
| 2026-05-06 23:21 | 39.12548 | -76.73429 | 5998 ft | 261 kts | 136° |
| 2026-05-06 23:21 | 39.11290 | -76.71723 | 6602 ft | 266 kts | 149° |
| 2026-05-06 23:22 | 39.09755 | -76.70343 | 6745 ft | 270 kts | 154° |
| 2026-05-06 23:22 | 39.08167 | -76.69049 | 6925 ft | 267 kts | 155° |
| 2026-05-06 23:22 | 39.06606 | -76.67776 | 7761 ft | 266 kts | 153° |
| 2026-05-06 23:22 | 39.05031 | -76.66429 | 8337 ft | 279 kts | 151° |
| 2026-05-06 23:23 | 39.03436 | -76.64909 | 8898 ft | 288 kts | 144° |
| 2026-05-06 23:23 | 39.02076 | -76.62966 | 9694 ft | 298 kts | 133° |
| 2026-05-06 23:23 | 39.00772 | -76.60838 | 10255 ft | 307 kts | 134° |
| 2026-05-06 23:23 | 38.99382 | -76.58660 | 10638 ft | 324 kts | 134° |
| 2026-05-06 23:24 | 38.97890 | -76.56366 | 10912 ft | 344 kts | 134° |
| 2026-05-06 23:24 | 38.96323 | -76.53985 | 11130 ft | 363 kts | 135° |
| 2026-05-06 23:24 | 38.94532 | -76.51612 | 11285 ft | 377 kts | 147° |
| 2026-05-06 23:24 | 38.92191 | -76.50062 | 11454 ft | 383 kts | 168° |
| 2026-05-06 23:25 | 38.89545 | -76.49669 | 11733 ft | 385 kts | 187° |
| 2026-05-06 23:25 | 38.86907 | -76.50243 | 12259 ft | 384 kts | 195° |
| 2026-05-06 23:25 | 38.84296 | -76.51014 | 12786 ft | 385 kts | 202° |
| 2026-05-06 23:25 | 38.81775 | -76.52213 | 13361 ft | 387 kts | 204° |
| 2026-05-06 23:26 | 38.79247 | -76.53439 | 13821 ft | 392 kts | 204° |
| 2026-05-06 23:26 | 38.76690 | -76.54689 | 13969 ft | 392 kts | 204° |
| 2026-05-06 23:26 | 38.74173 | -76.55924 | 14033 ft | 393 kts | 204° |
| 2026-05-06 23:26 | 38.71623 | -76.57176 | 14067 ft | 394 kts | 204° |
| 2026-05-06 23:27 | 38.69054 | -76.58418 | 14605 ft | 394 kts | 203° |
| 2026-05-06 23:27 | 38.66460 | -76.59616 | 15111 ft | 396 kts | 203° |
| 2026-05-06 23:27 | 38.63858 | -76.60819 | 15622 ft | 398 kts | 203° |
| 2026-05-06 23:27 | 38.61243 | -76.62031 | 16092 ft | 401 kts | 203° |
| 2026-05-06 23:28 | 38.58609 | -76.63250 | 16588 ft | 402 kts | 203° |
| 2026-05-06 23:28 | 38.55969 | -76.64472 | 17025 ft | 405 kts | 202° |
| 2026-05-06 23:28 | 38.53315 | -76.65700 | 17460 ft | 407 kts | 202° |
| 2026-05-06 23:28 | 38.50643 | -76.66935 | 17919 ft | 409 kts | 202° |
| 2026-05-06 23:29 | 38.47990 | -76.68161 | 18339 ft | 411 kts | 202° |
| 2026-05-06 23:29 | 38.45287 | -76.69409 | 18706 ft | 414 kts | 202° |
| 2026-05-06 23:29 | 38.42536 | -76.70606 | 18878 ft | 419 kts | 197° |
| 2026-05-06 23:29 | 38.39632 | -76.70972 | 18914 ft | 424 kts | 181° |
| 2026-05-06 23:30 | 38.36691 | -76.70613 | 19073 ft | 428 kts | 178° |
| 2026-05-06 23:30 | 38.33720 | -76.70188 | 19444 ft | 430 kts | 177° |
| 2026-05-06 23:30 | 38.30735 | -76.69735 | 19791 ft | 433 kts | 177° |
| 2026-05-06 23:30 | 38.27735 | -76.69263 | 20164 ft | 436 kts | 177° |
| 2026-05-06 23:31 | 38.24717 | -76.68781 | 20520 ft | 438 kts | 177° |
| 2026-05-06 23:31 | 38.21721 | -76.68299 | 20884 ft | 440 kts | 177° |
| 2026-05-06 23:31 | 38.18671 | -76.67809 | 21244 ft | 443 kts | 177° |
| 2026-05-06 23:31 | 38.15600 | -76.67345 | 21577 ft | 443 kts | 181° |
| 2026-05-06 23:32 | 38.12561 | -76.67611 | 21907 ft | 436 kts | 196° |
| 2026-05-06 23:32 | 38.09711 | -76.68878 | 22162 ft | 434 kts | 210° |
| 2026-05-06 23:32 | 38.07271 | -76.71036 | 22802 ft | 422 kts | 224° |
| 2026-05-06 23:32 | 38.05165 | -76.73562 | 23643 ft | 413 kts | 226° |
| 2026-05-06 23:33 | 38.03145 | -76.76151 | 23882 ft | 411 kts | 228° |
| 2026-05-06 23:33 | 38.01190 | -76.78764 | 23957 ft | 406 kts | 229° |
| 2026-05-06 23:33 | 37.99271 | -76.81376 | 23956 ft | 403 kts | 229° |
| 2026-05-06 23:33 | 37.97171 | -76.83737 | 23938 ft | 406 kts | 215° |
| 2026-05-06 23:34 | 37.94615 | -76.85313 | 23965 ft | 411 kts | 205° |
| 2026-05-06 23:34 | 37.91946 | -76.86649 | 23966 ft | 412 kts | 205° |
| 2026-05-06 23:34 | 37.89257 | -76.87937 | 23982 ft | 414 kts | 204° |
| 2026-05-06 23:34 | 37.86584 | -76.89186 | 23987 ft | 415 kts | 204° |
| 2026-05-06 23:35 | 37.83861 | -76.90439 | 23989 ft | 416 kts | 204° |
| 2026-05-06 23:35 | 37.81139 | -76.91678 | 23989 ft | 416 kts | 204° |
| 2026-05-06 23:35 | 37.78418 | -76.92914 | 23988 ft | 416 kts | 204° |
| 2026-05-06 23:35 | 37.75695 | -76.94148 | 23988 ft | 416 kts | 204° |
| 2026-05-06 23:36 | 37.72993 | -76.95371 | 23984 ft | 405 kts | 204° |
| 2026-05-06 23:36 | 37.70393 | -76.96547 | 23985 ft | 389 kts | 204° |
| 2026-05-06 23:36 | 37.67881 | -76.97683 | 23993 ft | 380 kts | 204° |
| 2026-05-06 23:36 | 37.65389 | -76.98809 | 23982 ft | 379 kts | 204° |
| 2026-05-06 23:37 | 37.62899 | -76.99933 | 23984 ft | 379 kts | 204° |
| 2026-05-06 23:37 | 37.60413 | -77.01054 | 23979 ft | 379 kts | 204° |
| 2026-05-06 23:37 | 37.57930 | -77.02173 | 23976 ft | 379 kts | 204° |
| 2026-05-06 23:37 | 37.55446 | -77.03292 | 23979 ft | 379 kts | 204° |
| 2026-05-06 23:38 | 37.52961 | -77.04411 | 23980 ft | 379 kts | 204° |
| 2026-05-06 23:38 | 37.50505 | -77.05515 | 23980 ft | 379 kts | 204° |
| 2026-05-06 23:38 | 37.48016 | -77.06634 | 23982 ft | 379 kts | 204° |
| 2026-05-06 23:38 | 37.45527 | -77.07752 | 23964 ft | 380 kts | 204° |
| 2026-05-06 23:39 | 37.43037 | -77.08870 | 23977 ft | 381 kts | 204° |
| 2026-05-06 23:39 | 37.40532 | -77.09994 | 23978 ft | 381 kts | 204° |
| 2026-05-06 23:39 | 37.38034 | -77.11113 | 23987 ft | 381 kts | 204° |
| 2026-05-06 23:39 | 37.35538 | -77.12231 | 23987 ft | 381 kts | 204° |
| 2026-05-06 23:40 | 37.33063 | -77.13400 | 23977 ft | 378 kts | 209° |
| 2026-05-06 23:40 | 37.30689 | -77.14808 | 23999 ft | 378 kts | 209° |
| 2026-05-06 23:40 | 37.28326 | -77.16186 | 23986 ft | 378 kts | 208° |
| 2026-05-06 23:40 | 37.25937 | -77.17562 | 23995 ft | 379 kts | 208° |
| 2026-05-06 23:41 | 37.23538 | -77.18935 | 23995 ft | 380 kts | 208° |
| 2026-05-06 23:41 | 37.21132 | -77.20307 | 24002 ft | 380 kts | 208° |
| 2026-05-06 23:41 | 37.18714 | -77.21684 | 24008 ft | 380 kts | 208° |
| 2026-05-06 23:41 | 37.16307 | -77.23066 | 24011 ft | 380 kts | 211° |
| 2026-05-06 23:42 | 37.14030 | -77.24727 | 24025 ft | 378 kts | 215° |
| 2026-05-06 23:42 | 37.11757 | -77.26412 | 24016 ft | 380 kts | 215° |
| 2026-05-06 23:42 | 37.09525 | -77.28044 | 24012 ft | 380 kts | 215° |
| 2026-05-06 23:42 | 37.07234 | -77.29704 | 24007 ft | 380 kts | 214° |
| 2026-05-06 23:43 | 37.04938 | -77.31364 | 24010 ft | 380 kts | 215° |
| 2026-05-06 23:43 | 37.02691 | -77.33043 | 23994 ft | 380 kts | 216° |
| 2026-05-06 23:43 | 37.00427 | -77.34733 | 24005 ft | 382 kts | 216° |
| 2026-05-06 23:43 | 36.98147 | -77.36432 | 24011 ft | 383 kts | 216° |
| 2026-05-06 23:44 | 36.95855 | -77.38137 | 24006 ft | 383 kts | 216° |
| 2026-05-06 23:44 | 36.93562 | -77.39841 | 24019 ft | 383 kts | 216° |
| 2026-05-06 23:44 | 36.91269 | -77.41544 | 24019 ft | 383 kts | 216° |
| 2026-05-06 23:44 | 36.88974 | -77.43248 | 24024 ft | 383 kts | 216° |
| 2026-05-06 23:45 | 36.86679 | -77.44950 | 24027 ft | 383 kts | 216° |
| 2026-05-06 23:45 | 36.84386 | -77.46650 | 24029 ft | 383 kts | 216° |
| 2026-05-06 23:45 | 36.82092 | -77.48345 | 24035 ft | 383 kts | 216° |
| 2026-05-06 23:45 | 36.79822 | -77.50023 | 24023 ft | 384 kts | 216° |
| 2026-05-06 23:46 | 36.77519 | -77.51722 | 24035 ft | 385 kts | 216° |
| 2026-05-06 23:46 | 36.75218 | -77.53421 | 24034 ft | 385 kts | 216° |
| 2026-05-06 23:46 | 36.72910 | -77.55122 | 24036 ft | 385 kts | 216° |
| 2026-05-06 23:46 | 36.70606 | -77.56819 | 23947 ft | 385 kts | 216° |
| 2026-05-06 23:47 | 36.68307 | -77.58511 | 23557 ft | 383 kts | 215° |
| 2026-05-06 23:47 | 36.66005 | -77.60204 | 22929 ft | 385 kts | 216° |
| 2026-05-06 23:47 | 36.63700 | -77.61899 | 22364 ft | 385 kts | 215° |
| 2026-05-06 23:47 | 36.61390 | -77.63596 | 21819 ft | 385 kts | 215° |
| 2026-05-06 23:48 | 36.59096 | -77.65280 | 21267 ft | 385 kts | 214° |
| 2026-05-06 23:48 | 36.56782 | -77.66979 | 20709 ft | 385 kts | 214° |
| 2026-05-06 23:48 | 36.54472 | -77.68672 | 20173 ft | 385 kts | 214° |
| 2026-05-06 23:48 | 36.52278 | -77.70456 | 19828 ft | 376 kts | 224° |
| 2026-05-06 23:49 | 36.50405 | -77.72658 | 19595 ft | 367 kts | 226° |
| 2026-05-06 23:49 | 36.48563 | -77.74819 | 19337 ft | 360 kts | 226° |
| 2026-05-06 23:49 | 36.46767 | -77.76936 | 19139 ft | 352 kts | 226° |
| 2026-05-06 23:49 | 36.44999 | -77.79025 | 18794 ft | 349 kts | 226° |
| 2026-05-06 23:50 | 36.43245 | -77.81098 | 18446 ft | 347 kts | 226° |
| 2026-05-06 23:50 | 36.39769 | -77.85208 | 17631 ft | 342 kts | 225° |
| 2026-05-06 23:50 | 36.38051 | -77.87237 | 17236 ft | 340 kts | 226° |
| 2026-05-06 23:51 | 36.36340 | -77.89256 | 16818 ft | 338 kts | 225° |
| 2026-05-06 23:51 | 36.34657 | -77.91241 | 16410 ft | 337 kts | 225° |
| 2026-05-06 23:51 | 36.32964 | -77.93236 | 16018 ft | 335 kts | 225° |
| 2026-05-06 23:51 | 36.31278 | -77.95222 | 15657 ft | 332 kts | 225° |
| 2026-05-06 23:52 | 36.29605 | -77.97192 | 15270 ft | 331 kts | 226° |
| 2026-05-06 23:52 | 36.27941 | -77.99150 | 14920 ft | 328 kts | 226° |
| 2026-05-06 23:52 | 36.26280 | -78.01102 | 14564 ft | 326 kts | 226° |
| 2026-05-06 23:52 | 36.24640 | -78.03030 | 14197 ft | 325 kts | 225° |
| 2026-05-06 23:53 | 36.23154 | -78.05101 | 13844 ft | 320 kts | 241° |
| 2026-05-06 23:53 | 36.22188 | -78.07533 | 13434 ft | 318 kts | 245° |
| 2026-05-06 23:53 | 36.21245 | -78.10001 | 13057 ft | 316 kts | 245° |
| 2026-05-06 23:53 | 36.20376 | -78.12494 | 12625 ft | 315 kts | 247° |
| 2026-05-06 23:54 | 36.19528 | -78.15000 | 12214 ft | 314 kts | 247° |
| 2026-05-06 23:54 | 36.18687 | -78.17494 | 11809 ft | 314 kts | 247° |
| 2026-05-06 23:54 | 36.18007 | -78.20048 | 11463 ft | 311 kts | 261° |
| 2026-05-06 23:54 | 36.17603 | -78.22658 | 11081 ft | 309 kts | 250° |
| 2026-05-06 23:55 | 36.16872 | -78.25180 | 10487 ft | 315 kts | 250° |
| 2026-05-06 23:55 | 36.16169 | -78.27787 | 9852 ft | 323 kts | 251° |
| 2026-05-06 23:55 | 36.15482 | -78.30458 | 9149 ft | 330 kts | 251° |
| 2026-05-06 23:55 | 36.14794 | -78.33198 | 8446 ft | 336 kts | 251° |
| 2026-05-06 23:56 | 36.14114 | -78.35947 | 8201 ft | 329 kts | 251° |
| 2026-05-06 23:56 | 36.13472 | -78.38567 | 8205 ft | 314 kts | 251° |
| 2026-05-06 23:56 | 36.12853 | -78.41099 | 7939 ft | 303 kts | 251° |
| 2026-05-06 23:56 | 36.12080 | -78.43471 | 7503 ft | 291 kts | 236° |
| 2026-05-06 23:57 | 36.10959 | -78.45501 | 7145 ft | 281 kts | 235° |
| 2026-05-06 23:57 | 36.09886 | -78.47479 | 6787 ft | 271 kts | 235° |
| 2026-05-06 23:57 | 36.08856 | -78.49384 | 6443 ft | 262 kts | 235° |
| 2026-05-06 23:57 | 36.07858 | -78.51231 | 6107 ft | 254 kts | 235° |
| 2026-05-06 23:58 | 36.06902 | -78.52999 | 5812 ft | 242 kts | 234° |
| 2026-05-06 23:58 | 36.05986 | -78.54694 | 5495 ft | 232 kts | 235° |
| 2026-05-06 23:58 | 36.05118 | -78.56302 | 5238 ft | 217 kts | 234° |
| 2026-05-06 23:58 | 36.04284 | -78.57765 | 5187 ft | 206 kts | 236° |
| 2026-05-06 23:59 | 36.03892 | -78.59459 | 5076 ft | 210 kts | 267° |
| 2026-05-06 23:59 | 36.04073 | -78.61248 | 5100 ft | 214 kts | 271° |
| 2026-05-06 23:59 | 36.03852 | -78.62994 | 5015 ft | 204 kts | 239° |
| 2026-05-06 23:59 | 36.02903 | -78.64274 | 5044 ft | 204 kts | 212° |
| 2026-05-07 00:00 | 36.01550 | -78.64800 | 5062 ft | 209 kts | 183° |
| 2026-05-07 00:00 | 36.00185 | -78.64276 | 5090 ft | 203 kts | 158° |
| 2026-05-07 00:00 | 35.98935 | -78.63509 | 5091 ft | 199 kts | 160° |
| 2026-05-07 00:00 | 35.98076 | -78.63155 | 4846 ft | 194 kts | 181° |
| 2026-05-07 00:01 | 35.96497 | -78.63988 | 4252 ft | 190 kts | 225° |
| 2026-05-07 00:01 | 35.95955 | -78.64825 | 4085 ft | 186 kts | 234° |
| 2026-05-07 00:01 | 35.95300 | -78.66190 | 3788 ft | 184 kts | 237° |
| 2026-05-07 00:01 | 35.94785 | -78.67599 | 3390 ft | 180 kts | 250° |
| 2026-05-07 00:02 | 35.94573 | -78.69070 | 3043 ft | 165 kts | 253° |
| 2026-05-07 00:02 | 35.94194 | -78.70331 | 2690 ft | 153 kts | 232° |
| 2026-05-07 00:02 | 35.93280 | -78.71574 | 2096 ft | 143 kts | 216° |
| 2026-05-07 00:02 | 35.92768 | -78.72095 | 1863 ft | 139 kts | 214° |
| 2026-05-07 00:03 | 35.92024 | -78.72842 | 1616 ft | 138 kts | 217° |
| 2026-05-07 00:03 | 35.91334 | -78.73695 | 1378 ft | 142 kts | 221° |
| 2026-05-07 00:03 | 35.90611 | -78.74585 | 1186 ft | 150 kts | 221° |
| 2026-05-07 00:03 | 35.89850 | -78.75520 | 983 ft | 158 kts | 223° |
| 2026-05-07 00:04 | 35.89081 | -78.76455 | 812 ft | 154 kts | 223° |
| 2026-05-07 00:04 | 35.88339 | -78.77424 | 634 ft | 157 kts | 220° |
| 2026-05-07 00:04 | 35.87581 | -78.78356 | 435 ft | 146 kts | 222° |
| 2026-05-07 00:04 | 35.87013 | -78.79051 | 430 ft | 66 kts | 225° |
| 2026-05-07 00:05 | 35.86817 | -78.79316 | 431 ft | 37 kts | 238° |
| 2026-05-07 00:05 | 35.86773 | -78.79452 | 435 ft | 11 kts | 254° |
| 2026-05-07 00:05 | 35.86766 | -78.79484 | 439 ft | 0 kts | 260° |
| 2026-05-07 00:05 | 35.86767 | -78.79484 | 439 ft | 0 kts | 263° |
| 2026-05-07 00:06 | 35.86768 | -78.79495 | 439 ft | 3 kts | 286° |
| 2026-05-07 00:06 | 35.86775 | -78.79510 | 438 ft | 0 kts | 302° |
| 2026-05-07 00:06 | 35.86775 | -78.79511 | 438 ft | 0 kts | 312° |
| 2026-05-07 00:07 | 35.86777 | -78.79511 | 438 ft | 0 kts | 336° |
| 2026-05-07 00:07 | 35.86784 | -78.79509 | 423 ft | 4 kts | 13° |
| 2026-05-07 00:07 | 35.86838 | -78.79462 | 432 ft | 16 kts | 42° |
| 2026-05-07 00:07 | 35.86942 | -78.79334 | 437 ft | 26 kts | 44° |
| 2026-05-07 00:08 | 35.87075 | -78.79171 | 428 ft | 19 kts | 45° |
| 2026-05-07 00:08 | 35.87162 | -78.79064 | 427 ft | 16 kts | 44° |
| 2026-05-07 00:08 | 35.87171 | -78.79054 | 437 ft | 0 kts | 44° |
| 2026-05-07 00:08 | 35.87174 | -78.79051 | 437 ft | 2 kts | 36° |
| 2026-05-07 00:09 | 35.87197 | -78.79052 | 437 ft | 5 kts | 341° |
| 2026-05-07 00:09 | 35.87223 | -78.79078 | 428 ft | 4 kts | 309° |
| 2026-05-07 00:09 | 35.87240 | -78.79101 | 437 ft | 2 kts | 313° |
| 2026-05-07 00:09 | 35.87244 | -78.79106 | 422 ft | 0 kts | 314° |
| 2026-05-07 00:10 | 35.87245 | -78.79107 | 422 ft | 1 kts | 314° |
| 2026-05-07 00:10 | 35.87247 | -78.79111 | 422 ft | 0 kts | 314° |
| 2026-05-07 00:10 | 35.87249 | -78.79113 | 422 ft | 1 kts | 314° |
| 2026-05-07 00:11 | 35.87251 | -78.79115 | 422 ft | 0 kts | 314° |
| 2026-05-07 00:11 | 35.87251 | -78.79116 | 422 ft | 0 kts | 314° |